Time;durP1;ratioP1;P1;durP2;ratioP2;P2;SDS_P1;SDS_P2;PMS_P1;PMS_P2;Temp;Humidity;BMP_temperature;BMP_pressure;BME280_temperature;BME280_humidity;BME280_pressure;Samples;Min_cycle;Max_cycle;Signal;HPM_P1;HPM_P2
2020/12/04 00:02:29;;;;;;;33.00;19.30;;;;;;;1.02;76.79;97795.48;2128424;82;21125;-80
2020/12/04 00:05:30;;;;;;;33.65;18.32;;;;;;;1.01;76.87;97789.99;2153025;82;21235;-80
2020/12/04 00:08:31;;;;;;;31.95;17.07;;;;;;;1.01;76.82;97786.94;2123692;82;21249;-80
2020/12/04 00:11:33;;;;;;;29.57;16.77;;;;;;;1.02;77.08;97791.14;2148333;82;21104;-80
2020/12/04 00:14:34;;;;;;;35.05;19.85;;;;;;;0.99;76.69;97780.27;2119980;82;21194;-80
2020/12/04 00:17:35;;;;;;;37.25;19.87;;;;;;;0.97;76.86;97793.79;2129214;82;21144;-80
2020/12/04 00:20:36;;;;;;;34.18;18.25;;;;;;;0.94;76.60;97792.31;2140034;82;21270;-80
2020/12/04 00:23:37;;;;;;;31.07;18.07;;;;;;;0.93;76.61;97793.75;2155810;82;21124;-80
2020/12/04 00:26:38;;;;;;;31.27;19.05;;;;;;;0.91;76.31;97794.34;2158621;82;21120;-80
2020/12/04 00:29:39;;;;;;;34.55;18.12;;;;;;;0.89;76.55;97800.94;2147228;82;21251;-80
2020/12/04 00:32:41;;;;;;;30.62;15.40;;;;;;;0.88;76.48;97803.66;2142995;82;21124;-80
2020/12/04 00:35:42;;;;;;;31.35;18.67;;;;;;;0.87;76.40;97778.84;2147224;81;21124;-80
2020/12/04 00:38:43;;;;;;;37.67;18.95;;;;;;;0.80;76.20;97749.75;2130101;82;21312;-80
2020/12/04 00:41:44;;;;;;;31.97;18.07;;;;;;;0.77;76.44;97759.55;2141842;82;21128;-80
2020/12/04 00:44:45;;;;;;;33.02;17.27;;;;;;;0.72;76.28;97747.55;2144606;82;21232;-80
2020/12/04 00:47:47;;;;;;;29.52;16.27;;;;;;;0.72;76.58;97772.03;2150812;82;21266;-80
2020/12/04 00:50:48;;;;;;;30.50;15.43;;;;;;;0.75;76.20;97770.48;2162641;81;21248;-80
2020/12/04 00:53:50;;;;;;;27.15;15.65;;;;;;;0.76;75.86;97760.02;2156440;82;21684;-80
2020/12/04 00:56:51;;;;;;;28.15;15.60;;;;;;;0.75;76.02;97757.59;2164082;82;21155;-80
2020/12/04 00:59:52;;;;;;;32.88;17.20;;;;;;;0.72;75.84;97765.58;2124277;82;21138;-80
2020/12/04 01:02:54;;;;;;;30.50;17.82;;;;;;;0.71;76.12;97762.67;2143250;82;21128;-80
2020/12/04 01:05:55;;;;;;;25.52;14.87;;;;;;;0.69;75.99;97765.39;2162865;82;21139;-80
2020/12/04 01:08:57;;;;;;;30.77;15.88;;;;;;;0.65;75.98;97776.95;2175847;82;21123;-80
2020/12/04 01:11:58;;;;;;;31.17;16.20;;;;;;;0.60;75.91;97780.88;2169215;82;21120;-80
2020/12/04 01:14:59;;;;;;;32.40;17.95;;;;;;;0.55;75.76;97749.92;2150086;82;21257;-81
2020/12/04 01:18:00;;;;;;;34.00;16.95;;;;;;;0.51;76.03;97765.78;2148926;82;21110;-80
2020/12/04 01:21:02;;;;;;;34.90;17.12;;;;;;;0.50;76.14;97770.60;2167646;82;21095;-80
2020/12/04 01:24:04;;;;;;;28.57;15.08;;;;;;;0.48;76.01;97781.05;2133891;82;21727;-80
2020/12/04 01:27:05;;;;;;;28.60;16.23;;;;;;;0.48;76.18;97781.53;2151657;82;21156;-80
2020/12/04 01:30:06;;;;;;;28.85;16.05;;;;;;;0.45;76.07;97775.34;2166375;82;21146;-80
2020/12/04 01:33:08;;;;;;;26.35;15.10;;;;;;;0.40;75.83;97767.23;2141672;82;21130;-80
2020/12/04 01:36:09;;;;;;;29.95;16.52;;;;;;;0.38;76.19;97754.50;2154530;82;21280;-80
2020/12/04 01:39:11;;;;;;;31.93;17.32;;;;;;;0.35;76.32;97750.90;2167383;82;21084;-80
2020/12/04 01:42:12;;;;;;;29.40;16.48;;;;;;;0.28;76.41;97751.95;2172318;81;21138;-80
2020/12/04 01:45:13;;;;;;;24.92;14.63;;;;;;;0.28;76.43;97740.84;2158583;82;21456;-80
2020/12/04 01:48:14;;;;;;;29.18;15.78;;;;;;;0.25;76.45;97737.23;2119206;82;21136;-80
2020/12/04 01:51:15;;;;;;;27.32;15.50;;;;;;;0.24;76.31;97728.70;2127231;82;21131;-80
2020/12/04 01:54:17;;;;;;;29.85;16.82;;;;;;;0.22;76.55;97719.50;2124940;82;21124;-80
2020/12/04 01:57:19;;;;;;;28.87;17.20;;;;;;;0.22;76.54;97723.36;2125823;81;21139;-80
2020/12/04 02:00:21;;;;;;;31.10;16.85;;;;;;;0.22;76.60;97713.06;2152318;82;21255;-80
2020/12/04 02:03:22;;;;;;;23.80;14.47;;;;;;;0.19;76.53;97701.76;2114059;82;21290;-80
2020/12/04 02:06:23;;;;;;;27.62;14.58;;;;;;;0.18;76.51;97688.08;2148206;82;21290;-80
2020/12/04 02:09:25;;;;;;;27.55;15.38;;;;;;;0.21;76.44;97674.11;2145322;82;21534;-80
2020/12/04 02:12:26;;;;;;;24.30;13.53;;;;;;;0.21;76.47;97652.22;2143445;82;21688;-80
2020/12/04 02:15:27;;;;;;;25.97;15.28;;;;;;;0.24;76.50;97657.08;2138315;82;21247;-80
2020/12/04 02:18:28;;;;;;;25.97;13.43;;;;;;;0.25;76.36;97658.22;2139400;82;21145;-80
2020/12/04 02:21:29;;;;;;;24.80;14.73;;;;;;;0.29;76.33;97662.64;2143263;82;21131;-80
2020/12/04 02:24:30;;;;;;;23.87;13.43;;;;;;;0.33;76.21;97674.27;2141127;82;21230;-80
2020/12/04 02:27:32;;;;;;;27.30;15.75;;;;;;;0.35;76.19;97669.78;2146773;82;21243;-80
2020/12/04 02:30:33;;;;;;;16.90;9.68;;;;;;;0.39;76.19;97671.14;2149372;82;21144;-80
2020/12/04 02:33:34;;;;;;;25.88;15.13;;;;;;;0.42;76.09;97664.41;2137265;82;21711;-80
2020/12/04 02:36:35;;;;;;;22.35;15.03;;;;;;;0.46;75.85;97664.95;2136507;82;21278;-80
2020/12/04 02:39:37;;;;;;;29.72;15.53;;;;;;;0.50;76.09;97653.41;2120141;82;21723;-80
2020/12/04 02:42:38;;;;;;;28.67;16.77;;;;;;;0.52;76.14;97655.35;2132805;82;21779;-80
2020/12/04 02:45:39;;;;;;;22.30;13.53;;;;;;;0.53;75.60;97637.66;2138807;82;21242;-80
2020/12/04 02:48:40;;;;;;;24.30;14.50;;;;;;;0.53;75.99;97638.94;2160773;81;21133;-80
2020/12/04 02:51:43;;;;;;;21.77;11.93;;;;;;;0.53;75.99;97641.52;2158471;82;21242;-80
2020/12/04 02:54:44;;;;;;;27.55;15.23;;;;;;;0.54;76.01;97646.52;2167533;82;21151;-80
2020/12/04 02:57:45;;;;;;;27.52;14.43;;;;;;;0.54;75.97;97641.38;2154548;81;21142;-80
2020/12/04 03:00:46;;;;;;;31.77;15.70;;;;;;;0.52;76.12;97647.15;2141459;82;21101;-80
2020/12/04 03:03:48;;;;;;;26.85;14.95;;;;;;;0.52;76.01;97636.03;2155871;82;21755;-80
2020/12/04 03:06:49;;;;;;;27.25;15.38;;;;;;;0.49;76.27;97640.19;2128500;82;21143;-80
2020/12/04 03:09:50;;;;;;;30.20;16.25;;;;;;;0.46;76.31;97616.83;2150425;82;21234;-80
2020/12/04 03:12:51;;;;;;;28.25;15.53;;;;;;;0.46;76.32;97628.89;2157719;82;21253;-80
2020/12/04 03:15:53;;;;;;;27.50;14.47;;;;;;;0.42;76.27;97628.35;2152790;82;21314;-80
2020/12/04 03:18:54;;;;;;;28.92;16.25;;;;;;;0.39;76.41;97635.08;2141852;82;21181;-80
2020/12/04 03:21:55;;;;;;;25.65;12.63;;;;;;;0.41;76.58;97643.95;2146576;82;21141;-80
2020/12/04 03:24:57;;;;;;;29.60;14.00;;;;;;;0.38;76.66;97635.23;2158194;82;21544;-79
2020/12/04 03:27:58;;;;;;;23.90;14.50;;;;;;;0.36;76.68;97619.89;2156349;82;21113;-79
2020/12/04 03:31:00;;;;;;;32.05;15.28;;;;;;;0.35;76.82;97603.30;2160932;82;21113;-79
2020/12/04 03:34:01;;;;;;;29.32;15.60;;;;;;;0.31;77.05;97606.65;2160650;82;21112;-79
2020/12/04 03:37:02;;;;;;;25.92;14.78;;;;;;;0.30;77.11;97592.64;2158216;82;21104;-78
2020/12/04 03:40:04;;;;;;;25.88;14.03;;;;;;;0.28;77.23;97582.00;2139415;82;21290;-80
2020/12/04 03:43:05;;;;;;;34.05;17.62;;;;;;;0.31;77.25;97600.69;2148319;82;21112;-80
2020/12/04 03:46:06;;;;;;;24.07;13.75;;;;;;;0.31;77.33;97600.69;2161160;82;21135;-80
2020/12/04 03:49:07;;;;;;;27.73;15.05;;;;;;;0.33;77.31;97614.23;2153489;82;21288;-80
2020/12/04 03:52:08;;;;;;;26.70;14.50;;;;;;;0.33;77.37;97594.91;2147918;82;21309;-80
2020/12/04 03:55:10;;;;;;;24.15;15.20;;;;;;;0.34;77.64;97600.39;2170510;82;21683;-80
2020/12/04 03:58:11;;;;;;;28.32;14.25;;;;;;;0.35;77.61;97587.84;2151586;81;21724;-80
2020/12/04 04:01:12;;;;;;;24.63;13.75;;;;;;;0.37;77.80;97597.08;2151322;82;21690;-80
2020/12/04 04:04:13;;;;;;;27.45;14.93;;;;;;;0.40;77.85;97622.54;2142504;82;21423;-80
2020/12/04 04:07:14;;;;;;;21.73;12.98;;;;;;;0.41;77.92;97613.86;2148373;82;21138;-80
2020/12/04 04:10:16;;;;;;;26.85;14.98;;;;;;;0.48;78.04;97605.09;2169900;82;21238;-80
2020/12/04 04:13:17;;;;;;;24.82;13.22;;;;;;;0.52;78.08;97612.38;2170884;82;21147;-80
2020/12/04 04:16:18;;;;;;;29.57;15.98;;;;;;;0.59;78.03;97615.20;2175599;82;21100;-80
2020/12/04 04:19:20;;;;;;;26.35;15.90;;;;;;;0.67;77.88;97627.36;2166329;82;21230;-80
2020/12/04 04:22:21;;;;;;;25.72;15.83;;;;;;;0.72;77.68;97624.67;2163777;82;21606;-80
2020/12/04 04:25:23;;;;;;;27.25;15.68;;;;;;;0.78;77.67;97626.69;2171915;82;21707;-80
2020/12/04 04:28:24;;;;;;;28.17;16.48;;;;;;;0.86;77.47;97623.39;2147704;81;21293;-80
2020/12/04 04:31:25;;;;;;;27.87;16.73;;;;;;;0.89;77.48;97614.55;2149215;82;21545;-79
2020/12/04 04:34:26;;;;;;;26.95;14.33;;;;;;;0.90;77.45;97610.53;2164321;82;21244;-80
2020/12/04 04:37:28;;;;;;;18.95;12.03;;;;;;;0.90;77.41;97620.84;2175624;81;21266;-80
2020/12/04 04:40:29;;;;;;;25.23;13.85;;;;;;;0.90;77.33;97613.59;2177095;81;21141;-80
2020/12/04 04:43:30;;;;;;;26.90;15.25;;;;;;;0.89;77.27;97615.36;2143526;82;21123;-80
2020/12/04 04:46:32;;;;;;;27.67;15.98;;;;;;;0.88;77.43;97629.20;2157484;81;21354;-80
2020/12/04 04:49:33;;;;;;;22.00;13.68;;;;;;;0.84;77.49;97620.96;2158267;82;21258;-80
2020/12/04 04:52:34;;;;;;;24.87;14.13;;;;;;;0.83;77.53;97632.71;2167967;81;21258;-79
2020/12/04 04:55:35;;;;;;;27.48;16.95;;;;;;;0.79;77.62;97628.78;2155786;81;21285;-79
2020/12/04 04:58:36;;;;;;;27.42;16.65;;;;;;;0.76;77.65;97627.79;2152710;82;21271;-79
2020/12/04 05:01:38;;;;;;;27.45;14.75;;;;;;;0.75;77.72;97626.17;2162389;82;21229;-79
2020/12/04 05:04:39;;;;;;;27.00;14.45;;;;;;;0.74;77.73;97633.09;2175603;82;21655;-79
2020/12/04 05:07:40;;;;;;;21.33;13.15;;;;;;;0.71;77.79;97629.50;2171206;81;21133;-79
2020/12/04 05:10:41;;;;;;;23.52;13.35;;;;;;;0.71;77.86;97635.12;2172327;80;21466;-79
2020/12/04 05:13:42;;;;;;;25.80;14.07;;;;;;;0.70;77.99;97635.61;2163284;81;21556;-79
2020/12/04 05:16:44;;;;;;;26.80;15.03;;;;;;;0.70;78.00;97642.53;2154471;82;21323;-79
2020/12/04 05:19:45;;;;;;;26.15;14.05;;;;;;;0.69;78.10;97638.33;2155894;81;21124;-78
2020/12/04 05:22:46;;;;;;;29.65;15.83;;;;;;;0.69;78.16;97640.91;2151350;82;21276;-79
2020/12/04 05:25:47;;;;;;;32.00;16.90;;;;;;;0.69;78.26;97638.33;2168454;82;21119;-80
2020/12/04 05:28:48;;;;;;;24.47;13.30;;;;;;;0.70;78.31;97629.64;2155067;82;21153;-79
2020/12/04 05:31:50;;;;;;;24.57;13.28;;;;;;;0.70;78.34;97627.88;2157196;82;21318;-80
2020/12/04 05:34:51;;;;;;;28.50;17.02;;;;;;;0.70;78.46;97618.05;2149410;82;21621;-79
2020/12/04 05:37:53;;;;;;;26.75;15.10;;;;;;;0.68;78.55;97623.35;2155191;82;21255;-79
2020/12/04 05:40:54;;;;;;;30.20;16.07;;;;;;;0.68;78.53;97605.80;2144357;82;21303;-79
2020/12/04 05:43:56;;;;;;;27.95;17.25;;;;;;;0.70;78.55;97606.45;2153914;82;21257;-79
2020/12/04 05:46:57;;;;;;;32.45;16.62;;;;;;;0.71;78.62;97614.03;2157838;81;21283;-80
2020/12/04 05:49:59;;;;;;;30.12;16.25;;;;;;;0.71;78.57;97614.03;2156708;81;21247;-79
2020/12/04 05:53:01;;;;;;;28.15;15.80;;;;;;;0.69;78.75;97586.32;2162925;81;21583;-78
2020/12/04 05:56:02;;;;;;;24.27;14.55;;;;;;;0.69;78.70;97608.22;2168499;81;21142;-79
2020/12/04 05:59:04;;;;;;;27.95;14.30;;;;;;;0.69;78.86;97606.13;2160873;81;21703;-82
2020/12/04 06:02:05;;;;;;;22.90;12.40;;;;;;;0.68;78.92;97596.78;2168818;81;21118;-79
2020/12/04 06:05:06;;;;;;;27.62;15.38;;;;;;;0.69;79.10;97600.97;2156756;81;21146;-79
2020/12/04 06:08:07;;;;;;;28.85;16.50;;;;;;;0.69;79.01;97586.80;2153836;81;21293;-79
2020/12/04 06:11:09;;;;;;;26.17;14.68;;;;;;;0.69;79.01;97594.05;2167537;81;21260;-79
2020/12/04 06:14:11;;;;;;;29.27;15.68;;;;;;;0.69;78.96;97614.66;2165551;81;21647;-80
2020/12/04 06:17:12;;;;;;;28.77;15.65;;;;;;;0.67;78.97;97597.25;2170431;81;21167;-82
2020/12/04 06:20:16;;;;;;;30.00;16.65;;;;;;;0.68;78.90;97622.06;2169176;81;21128;-81
2020/12/04 06:23:18;;;;;;;27.37;14.93;;;;;;;0.69;78.89;97636.56;2151202;81;21714;-82
2020/12/04 06:26:19;;;;;;;23.30;14.55;;;;;;;0.69;78.91;97639.63;2152117;81;21356;-82
2020/12/04 06:29:21;;;;;;;22.75;12.03;;;;;;;0.71;78.77;97637.23;2150940;81;21246;-81
2020/12/04 06:32:22;;;;;;;30.85;16.50;;;;;;;0.74;78.79;97629.70;2152253;81;21135;-82
2020/12/04 06:35:24;;;;;;;27.30;17.62;;;;;;;0.72;78.69;97634.98;2155221;81;21666;-81
2020/12/04 06:38:25;;;;;;;31.93;16.40;;;;;;;0.72;78.72;97631.59;2160326;81;21288;-81
2020/12/04 06:41:26;;;;;;;24.25;12.65;;;;;;;0.74;78.68;97628.42;2153663;81;21581;-82
2020/12/04 06:44:31;;;;;;;31.40;17.50;;;;;;;0.75;78.71;97638.58;2155977;81;21273;-82
2020/12/04 06:47:32;;;;;;;30.20;18.37;;;;;;;0.77;78.60;97617.33;2146197;81;21291;-81
2020/12/04 06:50:33;;;;;;;27.17;13.83;;;;;;;0.78;78.60;97614.28;2145092;82;21156;-81
2020/12/04 06:53:34;;;;;;;29.07;14.60;;;;;;;0.78;78.41;97615.09;2148989;82;21148;-81
2020/12/04 06:56:38;;;;;;;28.12;15.83;;;;;;;0.80;78.26;97600.77;2130743;82;21592;-82
2020/12/04 06:59:40;;;;;;;28.50;16.17;;;;;;;0.81;78.34;97618.66;2135945;82;21721;-80
2020/12/04 07:02:43;;;;;;;27.35;13.45;;;;;;;0.81;78.35;97614.79;2147407;81;21127;-82
2020/12/04 07:05:47;;;;;;;31.10;16.17;;;;;;;0.84;78.25;97609.84;2136229;82;21187;-80
2020/12/04 07:08:49;;;;;;;26.02;16.65;;;;;;;0.87;78.30;97610.02;2139068;82;21283;-81
2020/12/04 07:11:50;;;;;;;23.32;13.88;;;;;;;0.91;78.00;97602.32;2119876;82;21587;-80
2020/12/04 07:14:51;;;;;;;30.23;16.12;;;;;;;0.97;78.14;97619.31;2121296;82;21144;-81
2020/12/04 07:17:53;;;;;;;26.33;16.55;;;;;;;1.00;78.04;97628.52;2142763;82;21262;-83
2020/12/04 07:20:54;;;;;;;27.00;15.13;;;;;;;1.09;77.83;97628.93;2143936;82;21295;-81
2020/12/04 07:23:59;;;;;;;30.60;16.60;;;;;;;1.17;77.74;97627.72;2108997;82;21267;-83
2020/12/04 07:27:00;;;;;;;25.65;14.73;;;;;;;1.28;77.38;97633.98;2149976;82;21587;-81
2020/12/04 07:30:01;;;;;;;26.25;15.53;;;;;;;1.37;76.87;97634.38;2139851;82;21132;-81
2020/12/04 07:33:02;;;;;;;36.35;18.12;;;;;;;1.47;76.95;97635.59;2140707;82;21301;-81
2020/12/04 07:36:04;;;;;;;29.98;17.45;;;;;;;1.53;76.76;97637.55;2130346;82;21583;-81
2020/12/04 07:39:06;;;;;;;23.75;14.55;;;;;;;1.62;76.79;97627.63;2139805;82;21710;-86
2020/12/04 07:42:08;;;;;;;30.65;18.10;;;;;;;1.68;76.31;97646.41;2138921;81;21242;-78
2020/12/04 07:45:10;;;;;;;26.60;14.75;;;;;;;1.70;76.35;97651.41;2138094;82;21262;-79
2020/12/04 07:48:11;;;;;;;29.50;16.80;;;;;;;1.76;76.19;97680.98;2133987;82;21257;-83
2020/12/04 07:51:12;;;;;;;24.00;14.58;;;;;;;1.82;76.19;97683.76;2119304;82;21274;-80
2020/12/04 07:54:14;;;;;;;26.97;15.13;;;;;;;1.88;76.13;97697.84;2144053;82;21289;-85
2020/12/04 07:57:15;;;;;;;30.75;16.35;;;;;;;1.91;75.90;97698.34;2140384;82;21126;-79
2020/12/04 08:00:18;;;;;;;33.85;16.37;;;;;;;1.94;75.89;97699.84;2141191;82;21666;-79
2020/12/04 08:03:19;;;;;;;31.65;15.63;;;;;;;1.97;75.69;97718.90;2145062;80;21245;-80
2020/12/04 08:06:20;;;;;;;27.17;15.18;;;;;;;2.03;75.43;97699.43;2143775;82;21556;-78
2020/12/04 08:09:22;;;;;;;29.30;17.50;;;;;;;2.05;75.12;97698.79;2147724;82;21537;-79
2020/12/04 08:12:25;;;;;;;31.42;17.60;;;;;;;1.99;75.26;97688.09;2149753;82;21249;-80
2020/12/04 08:15:27;;;;;;;28.12;16.40;;;;;;;1.96;75.22;97681.95;2144730;82;21100;-79
2020/12/04 08:18:31;;;;;;;29.63;15.08;;;;;;;2.02;75.37;97693.94;2155089;82;21283;-79
2020/12/04 08:21:32;;;;;;;31.55;18.42;;;;;;;2.08;75.19;97685.56;2155734;81;21242;-79
2020/12/04 08:24:34;;;;;;;31.85;17.60;;;;;;;2.10;75.24;97681.86;2151028;82;21321;-77
2020/12/04 08:27:35;;;;;;;25.60;14.95;;;;;;;2.16;75.22;97694.19;2160219;81;21153;-78
2020/12/04 08:34:20;;;;;;;27.50;14.18;;;;;;;2.34;74.52;97692.04;2191705;79;22762;-80
2020/12/04 08:37:20;;;;;;;29.05;17.32;;;;;;;2.36;74.50;97684.94;2152784;82;21809;-80
2020/12/04 08:40:22;;;;;;;27.58;17.73;;;;;;;2.41;74.31;97684.02;2145850;82;21564;-81
2020/12/04 08:43:23;;;;;;;28.38;17.25;;;;;;;2.47;74.28;97685.97;2145210;82;21567;-80
2020/12/04 08:46:26;;;;;;;26.33;15.95;;;;;;;2.50;74.45;97690.36;2159051;81;21463;-78
2020/12/04 08:49:27;;;;;;;24.05;14.90;;;;;;;2.58;74.11;97696.55;2123089;82;21419;-79
2020/12/04 08:52:29;;;;;;;27.85;16.12;;;;;;;2.66;73.82;97703.05;2139533;82;21778;-78
2020/12/04 08:55:30;;;;;;;23.18;15.18;;;;;;;2.70;74.05;97706.45;2154195;82;21455;-79
2020/12/04 08:58:32;;;;;;;24.63;15.30;;;;;;;2.75;73.59;97686.62;2150442;82;21152;-79
2020/12/04 09:01:33;;;;;;;28.95;16.32;;;;;;;2.77;73.38;97689.85;2169672;82;21129;-80
2020/12/04 09:04:35;;;;;;;26.20;16.37;;;;;;;2.89;73.53;97697.65;2170158;82;21127;-80
2020/12/04 09:07:37;;;;;;;24.65;15.45;;;;;;;2.95;73.72;97690.57;2168353;82;21136;-79
2020/12/04 09:10:39;;;;;;;24.77;15.60;;;;;;;3.02;73.17;97678.64;2169118;81;21157;-79
2020/12/04 09:13:40;;;;;;;29.42;17.15;;;;;;;3.11;73.36;97683.36;2137641;82;21128;-80
2020/12/04 09:16:41;;;;;;;27.37;16.10;;;;;;;3.26;73.58;97684.34;2136577;82;21148;-79
2020/12/04 09:19:45;;;;;;;25.00;16.17;;;;;;;3.40;72.06;97679.05;2158888;81;21580;-77
2020/12/04 09:22:49;;;;;;;23.00;14.28;;;;;;;3.52;72.66;97686.02;2169152;82;21627;-80
2020/12/04 09:25:50;;;;;;;29.65;17.35;;;;;;;3.59;71.93;97683.93;2175417;80;21144;-80
2020/12/04 09:28:53;;;;;;;27.87;16.90;;;;;;;3.64;71.69;97690.72;2162718;82;21565;-80
2020/12/04 09:31:54;;;;;;;32.40;18.73;;;;;;;3.67;72.09;97678.77;2165737;81;21282;-80
2020/12/04 09:34:55;;;;;;;31.68;17.62;;;;;;;3.73;72.03;97684.25;2171185;81;21266;-79
2020/12/04 09:37:56;;;;;;;30.27;17.17;;;;;;;3.77;71.89;97666.14;2169478;81;21563;-79
2020/12/04 09:40:58;;;;;;;30.60;16.52;;;;;;;3.76;71.77;97648.51;2159436;81;21144;-78
2020/12/04 09:43:59;;;;;;;23.77;14.98;;;;;;;3.76;71.75;97643.33;2099772;84;21279;-79
2020/12/04 09:47:00;;;;;;;23.10;15.63;;;;;;;3.79;71.68;97646.07;2140559;82;21319;-79
2020/12/04 09:50:01;;;;;;;24.82;15.43;;;;;;;3.88;71.62;97660.15;2162282;81;21247;-79
2020/12/04 09:53:02;;;;;;;28.07;17.48;;;;;;;3.97;71.71;97643.63;2170819;82;21724;-78
2020/12/04 09:56:04;;;;;;;27.52;15.40;;;;;;;4.07;71.62;97637.47;2162460;82;22189;-78
2020/12/04 09:59:05;;;;;;;26.25;16.07;;;;;;;4.12;71.49;97613.99;2151680;82;21541;-78
2020/12/04 10:02:06;;;;;;;23.92;15.72;;;;;;;4.15;71.02;97610.25;2148213;82;21276;-78
2020/12/04 10:05:08;;;;;;;23.47;15.20;;;;;;;4.18;70.95;97606.83;2170813;81;21315;-78
2020/12/04 10:08:09;;;;;;;26.82;15.05;;;;;;;4.24;71.07;97589.33;2135391;82;21592;-79
2020/12/04 10:11:11;;;;;;;27.85;17.75;;;;;;;4.31;71.27;97589.48;2162418;81;21631;-79
2020/12/04 10:14:13;;;;;;;28.42;17.82;;;;;;;4.40;71.37;97585.08;2153773;82;21234;-79
2020/12/04 10:17:15;;;;;;;28.83;15.23;;;;;;;4.48;70.79;97567.72;2151692;82;21660;-79
2020/12/04 10:20:16;;;;;;;25.10;16.07;;;;;;;4.57;70.24;97584.02;2174972;82;21546;-79
2020/12/04 10:23:17;;;;;;;26.65;16.00;;;;;;;4.68;70.70;97601.01;2162679;81;21259;-79
2020/12/04 10:26:18;;;;;;;22.58;14.83;;;;;;;4.77;70.29;97599.50;2162289;81;21566;-79
2020/12/04 10:29:19;;;;;;;23.22;15.13;;;;;;;4.87;70.86;97603.18;2154601;81;21343;-79
2020/12/04 10:32:21;;;;;;;21.90;13.75;;;;;;;4.94;70.51;97590.31;2139234;82;21657;-79
2020/12/04 10:35:22;;;;;;;24.55;13.30;;;;;;;5.04;69.95;97585.25;2141785;82;21149;-79
2020/12/04 10:38:23;;;;;;;19.27;13.93;;;;;;;5.11;69.65;97576.27;2143591;82;21120;-82
2020/12/04 10:41:25;;;;;;;20.80;13.20;;;;;;;5.19;70.16;97578.00;2149770;82;21246;-82
2020/12/04 10:44:27;;;;;;;18.60;12.58;;;;;;;5.25;70.15;97569.05;2149777;82;21544;-79
2020/12/04 10:47:29;;;;;;;25.25;13.58;;;;;;;5.26;69.37;97565.95;2146561;82;21113;-82
2020/12/04 10:50:30;;;;;;;18.82;12.33;;;;;;;5.28;69.61;97562.20;2138233;82;21116;-79
2020/12/04 10:53:32;;;;;;;21.15;13.05;;;;;;;5.34;69.77;97577.09;2132099;82;21230;-81
2020/12/04 10:56:33;;;;;;;20.23;11.63;;;;;;;5.42;69.34;97579.63;2156405;82;21513;-79
2020/12/04 10:59:34;;;;;;;16.07;11.33;;;;;;;5.56;69.36;97560.36;2123826;82;21293;-81
2020/12/04 11:02:38;;;;;;;16.77;11.65;;;;;;;5.65;68.85;97540.63;2133306;82;21582;-80
2020/12/04 11:05:41;;;;;;;18.90;12.00;;;;;;;5.75;69.41;97539.56;2138844;82;21302;-80
2020/12/04 11:08:46;;;;;;;18.90;12.88;;;;;;;5.82;68.97;97549.08;2118444;82;21255;-83
2020/12/04 11:11:46;;;;;;;19.10;13.28;;;;;;;5.91;68.49;97559.73;2134699;82;21563;-80
2020/12/04 11:14:47;;;;;;;17.27;10.68;;;;;;;6.01;68.98;97556.88;2128787;82;21264;-81
2020/12/04 11:17:48;;;;;;;19.30;12.60;;;;;;;6.09;68.32;97545.59;2151314;82;21251;-81
2020/12/04 11:20:49;;;;;;;22.45;11.38;;;;;;;6.18;68.19;97547.92;2127943;82;21504;-80
2020/12/04 11:23:50;;;;;;;16.02;11.22;;;;;;;6.27;68.11;97534.33;2134593;82;21105;-80
2020/12/04 11:26:52;;;;;;;17.32;10.75;;;;;;;6.30;67.81;97526.66;2138018;82;21280;-81
2020/12/04 11:29:53;;;;;;;15.38;10.70;;;;;;;6.31;68.12;97533.00;2135223;82;21286;-78
2020/12/04 11:32:54;;;;;;;12.95;8.63;;;;;;;6.31;67.87;97527.80;2128789;82;21148;-81
2020/12/04 11:35:55;;;;;;;14.95;9.03;;;;;;;6.35;68.18;97514.74;2129058;82;21281;-80
2020/12/04 11:38:57;;;;;;;18.15;11.12;;;;;;;6.42;67.68;97497.44;2132221;82;21255;-79
2020/12/04 11:41:58;;;;;;;15.88;10.85;;;;;;;6.52;67.82;97500.55;2129946;82;21124;-80
2020/12/04 11:44:59;;;;;;;18.70;11.57;;;;;;;6.58;67.72;97484.69;2131121;82;21611;-81
2020/12/04 11:48:00;;;;;;;15.65;10.00;;;;;;;6.62;67.92;97493.75;2135298;82;21281;-78
2020/12/04 11:51:02;;;;;;;14.15;9.40;;;;;;;6.66;68.03;97494.17;2128839;82;21080;-79
2020/12/04 11:54:03;;;;;;;17.00;9.93;;;;;;;6.68;67.52;97483.12;2131226;82;21258;-84
2020/12/04 11:57:05;;;;;;;13.05;8.30;;;;;;;6.70;67.36;97486.33;2127833;82;21152;-80
2020/12/04 12:00:06;;;;;;;13.80;8.43;;;;;;;6.74;67.63;97481.05;2126403;82;21257;-79
2020/12/04 12:03:07;;;;;;;15.58;9.75;;;;;;;6.76;67.13;97485.57;2105261;82;21759;-79
2020/12/04 12:06:08;;;;;;;12.43;8.75;;;;;;;6.79;67.17;97477.42;2141905;82;21266;-79
2020/12/04 12:09:09;;;;;;;14.05;9.55;;;;;;;6.85;67.19;97474.86;2146838;82;21231;-77
2020/12/04 12:12:13;;;;;;;13.25;9.68;;;;;;;6.95;67.32;97481.08;2156292;81;21253;-80
2020/12/04 12:15:15;;;;;;;16.73;9.88;;;;;;;7.02;66.99;97481.92;2143401;81;21231;-80
2020/12/04 12:18:16;;;;;;;14.68;10.20;;;;;;;7.12;67.10;97482.41;2154290;81;21132;-79
2020/12/04 12:21:17;;;;;;;11.63;9.00;;;;;;;7.21;66.35;97467.97;2136510;81;21289;-80
2020/12/04 12:24:19;;;;;;;15.08;9.10;;;;;;;7.28;66.59;97471.44;2143165;82;21120;-80
2020/12/04 12:27:20;;;;;;;12.68;9.40;;;;;;;7.30;66.14;97457.22;2141614;82;21294;-81
2020/12/04 12:30:21;;;;;;;16.37;9.35;;;;;;;7.33;66.20;97482.91;2141511;81;21128;-79
2020/12/04 12:33:23;;;;;;;13.80;9.60;;;;;;;7.30;65.80;97478.55;2154024;81;21136;-89
2020/12/04 12:36:25;;;;;;;13.50;9.73;;;;;;;7.24;65.54;97471.02;2145232;82;21555;-85
2020/12/04 12:39:26;;;;;;;12.58;8.20;;;;;;;7.21;65.73;97474.47;2159637;82;21306;-79
2020/12/04 12:42:28;;;;;;;11.68;8.48;;;;;;;7.18;65.76;97459.23;2152221;82;21297;-79
2020/12/04 12:45:29;;;;;;;12.95;9.58;;;;;;;7.18;65.63;97471.75;2152808;82;21152;-79
2020/12/04 12:48:31;;;;;;;12.60;9.58;;;;;;;7.21;65.53;97484.89;2154303;82;21144;-80
2020/12/04 12:51:32;;;;;;;14.23;9.00;;;;;;;7.26;65.43;97478.63;2152368;82;21268;-79
2020/12/04 12:54:33;;;;;;;14.03;10.25;;;;;;;7.33;65.43;97494.63;2145347;82;21193;-81
2020/12/04 12:57:35;;;;;;;9.73;7.70;;;;;;;7.38;66.13;97501.36;2156899;80;21178;-85
2020/12/04 13:00:36;;;;;;;12.10;8.18;;;;;;;7.42;65.28;97513.52;2157750;82;21138;-79
2020/12/04 13:03:37;;;;;;;12.93;8.90;;;;;;;7.46;65.36;97513.94;2164220;82;22238;-80
2020/12/04 13:06:39;;;;;;;13.15;9.85;;;;;;;7.48;65.41;97540.59;2153331;82;21295;-81
2020/12/04 13:09:43;;;;;;;14.45;9.43;;;;;;;7.47;65.80;97538.48;2166968;82;21267;-85
2020/12/04 13:12:45;;;;;;;13.22;9.03;;;;;;;7.48;65.90;97537.99;2164905;80;21261;-82
2020/12/04 13:15:49;;;;;;;16.50;10.05;;;;;;;7.47;65.81;97528.07;2159409;80;21240;-82
2020/12/04 13:18:50;;;;;;;12.47;8.63;;;;;;;7.47;66.05;97521.56;2181660;80;21619;-81
2020/12/04 13:21:55;;;;;;;12.82;9.05;;;;;;;7.44;65.63;97521.14;2189826;80;21816;-83
2020/12/04 13:24:56;;;;;;;13.43;8.93;;;;;;;7.41;65.74;97552.28;2174433;82;21740;-82
2020/12/04 13:27:58;;;;;;;14.28;8.90;;;;;;;7.36;65.81;97563.25;2152851;82;21261;-82
2020/12/04 13:31:01;;;;;;;13.35;9.25;;;;;;;7.28;65.83;97558.66;2170496;80;21159;-82
2020/12/04 13:34:03;;;;;;;17.32;10.53;;;;;;;7.22;66.17;97554.19;2176223;80;21131;-83
2020/12/04 13:37:04;;;;;;;14.30;8.98;;;;;;;7.17;66.35;97566.97;2161956;80;21097;-79
2020/12/04 13:40:05;;;;;;;11.70;8.08;;;;;;;7.07;66.17;97574.59;2165205;82;21155;-83
2020/12/04 13:43:07;;;;;;;11.55;8.85;;;;;;;7.01;66.65;97568.00;2159155;82;21164;-81
2020/12/04 13:46:11;;;;;;;13.55;8.75;;;;;;;6.96;66.74;97560.77;2148730;82;21292;-83
2020/12/04 13:49:13;;;;;;;10.95;8.45;;;;;;;6.93;66.82;97559.81;2132999;83;21551;-86
2020/12/04 13:52:14;;;;;;;12.98;8.18;;;;;;;6.91;66.97;97555.78;2133433;82;21287;-85
2020/12/04 13:55:15;;;;;;;13.28;9.60;;;;;;;6.90;67.19;97561.48;2157713;82;21687;-83
2020/12/04 13:58:16;;;;;;;13.62;9.75;;;;;;;6.87;67.35;97574.08;2147206;82;21704;-85
2020/12/04 14:01:20;;;;;;;13.55;9.03;;;;;;;6.82;67.48;97588.92;2138960;82;21688;-85
2020/12/04 14:04:21;;;;;;;12.15;8.45;;;;;;;6.78;67.71;97592.89;2150059;82;21254;-82
2020/12/04 14:07:23;;;;;;;13.32;9.15;;;;;;;6.74;67.73;97589.82;2143172;82;21281;-84
2020/12/04 14:10:24;;;;;;;12.13;8.48;;;;;;;6.73;67.83;97586.11;2146379;82;21105;-83